| Date | Time | Temp. (oF) | Dew Point (oF) | Rel. Hum. (%) | Press. (in.) | Wind Dir. | Wind Speed (mph) | Hourly Rainfall (in.) |
|
|---|---|---|---|---|---|---|---|---|---|
| 1 | 10/27 | 00:00 | 44 | 27 | 53 | 30.42 | SSW | 3 | 0.00 |
| 2 | 10/26 | 23:00 | 45 | 28 | 52 | 30.43 | SSW | 4 | 0.00 |
| 3 | 10/26 | 22:00 | 45 | 26 | 48 | 30.43 | SW | 0 | 0.00 |
| 4 | 10/26 | 21:00 | 46 | 26 | 46 | 30.43 | SSW | 1 | 0.00 |
| 5 | 10/26 | 20:00 | 47 | 26 | 45 | 30.42 | S | 0 | 0.00 |
| 6 | 10/26 | 19:00 | 47 | 27 | 46 | 30.39 | SSW | 0 | 0.00 |
| 7 | 10/26 | 18:00 | 49 | 25 | 40 | 30.38 | S | 0 | 0.00 |
| 8 | 10/26 | 17:00 | 52 | 25 | 35 | 30.38 | SE | 0 | 0.00 |
| 9 | 10/26 | 16:00 | 54 | 27 | 36 | 30.38 | WNW | 0 | 0.00 |
| 10 | 10/26 | 15:00 | 54 | 27 | 36 | 30.40 | SSE | 4 | 0.00 |
| 11 | 10/26 | 14:00 | 52 | 28 | 40 | 30.43 | SSE | 1 | 0.00 |
| 12 | 10/26 | 13:00 | 51 | 29 | 44 | 30.44 | WNW | 6 | 0.00 |
| 13 | 10/26 | 12:00 | 49 | 27 | 43 | 30.48 | SSE | 8 | 0.00 |
| 14 | 10/26 | 11:00 | 46 | 28 | 50 | 30.49 | SSW | 3 | 0.00 |
| 15 | 10/26 | 10:00 | 42 | 31 | 66 | 30.50 | SSE | 0 | 0.00 |
| 16 | 10/26 | 09:00 | 34 | 31 | 91 | 30.50 | WSW | 0 | 0.00 |
| 17 | 10/26 | 08:00 | 27 | 23 | 87 | 30.48 | WSW | 0 | 0.00 |
| 18 | 10/26 | 07:00 | 27 | 23 | 86 | 30.46 | WSW | 0 | 0.00 |
| 19 | 10/26 | 06:00 | 28 | 24 | 86 | 30.45 | WNW | 0 | 0.00 |
| 20 | 10/26 | 05:00 | 30 | 25 | 84 | 30.44 | WSW | 0 | 0.00 |
| 21 | 10/26 | 04:00 | 31 | 26 | 83 | 30.43 | SSW | 0 | 0.00 |
| 22 | 10/26 | 03:00 | 31 | 25 | 80 | 30.43 | WSW | 0 | 0.00 |
| 23 | 10/26 | 02:00 | 32 | 26 | 79 | 30.42 | SSE | 0 | 0.00 |
| 24 | 10/26 | 01:00 | 33 | 25 | 74 | 30.41 | WSW | 0 | 0.00 |